sensor_id;sensor_type;location;lat;lon;timestamp;temperature;humidity
23564;DHT22;11960;45.444;11.078;2022-08-21T00:00:24;21.40;99.90
23564;DHT22;11960;45.444;11.078;2022-08-21T00:02:28;21.40;99.90
23564;DHT22;11960;45.444;11.078;2022-08-21T00:04:30;21.40;99.90
23564;DHT22;11960;45.444;11.078;2022-08-21T00:06:34;21.40;99.90
23564;DHT22;11960;45.444;11.078;2022-08-21T00:08:37;21.40;99.90
23564;DHT22;11960;45.444;11.078;2022-08-21T00:10:41;21.30;99.90
23564;DHT22;11960;45.444;11.078;2022-08-21T00:12:44;21.30;99.90
23564;DHT22;11960;45.444;11.078;2022-08-21T00:14:48;21.30;99.90
23564;DHT22;11960;45.444;11.078;2022-08-21T00:16:51;21.30;99.90
23564;DHT22;11960;45.444;11.078;2022-08-21T00:18:58;21.30;99.90
23564;DHT22;11960;45.444;11.078;2022-08-21T00:21:01;21.20;99.90
23564;DHT22;11960;45.444;11.078;2022-08-21T00:23:03;21.20;99.90
23564;DHT22;11960;45.444;11.078;2022-08-21T00:25:07;21.20;99.90
23564;DHT22;11960;45.444;11.078;2022-08-21T00:27:10;21.20;99.90
23564;DHT22;11960;45.444;11.078;2022-08-21T00:29:13;21.20;99.90
23564;DHT22;11960;45.444;11.078;2022-08-21T00:31:17;21.20;99.90
23564;DHT22;11960;45.444;11.078;2022-08-21T00:33:20;21.30;99.90
23564;DHT22;11960;45.444;11.078;2022-08-21T00:35:27;21.30;99.90
23564;DHT22;11960;45.444;11.078;2022-08-21T00:37:30;21.40;99.90
23564;DHT22;11960;45.444;11.078;2022-08-21T00:39:36;21.40;99.90
23564;DHT22;11960;45.444;11.078;2022-08-21T00:41:41;21.40;99.90
23564;DHT22;11960;45.444;11.078;2022-08-21T00:43:44;21.40;99.90
23564;DHT22;11960;45.444;11.078;2022-08-21T00:45:49;21.40;99.90
23564;DHT22;11960;45.444;11.078;2022-08-21T00:47:52;21.40;99.90
23564;DHT22;11960;45.444;11.078;2022-08-21T00:49:57;21.50;99.90
23564;DHT22;11960;45.444;11.078;2022-08-21T00:52:00;21.50;99.90
23564;DHT22;11960;45.444;11.078;2022-08-21T00:54:04;21.40;99.90
23564;DHT22;11960;45.444;11.078;2022-08-21T00:59:15;21.40;99.90
23564;DHT22;11960;45.444;11.078;2022-08-21T01:01:31;21.40;99.90
23564;DHT22;11960;45.444;11.078;2022-08-21T01:03:35;21.40;99.90
23564;DHT22;11960;45.444;11.078;2022-08-21T01:05:41;21.40;99.90
23564;DHT22;11960;45.444;11.078;2022-08-21T01:07:43;21.40;99.90
23564;DHT22;11960;45.444;11.078;2022-08-21T01:09:47;21.50;99.90
23564;DHT22;11960;45.444;11.078;2022-08-21T01:11:51;21.40;99.90
23564;DHT22;11960;45.444;11.078;2022-08-21T01:13:54;21.40;99.90
23564;DHT22;11960;45.444;11.078;2022-08-21T01:16:00;21.40;99.90
23564;DHT22;11960;45.444;11.078;2022-08-21T01:18:12;21.40;99.90
23564;DHT22;11960;45.444;11.078;2022-08-21T01:20:15;21.50;99.90
23564;DHT22;11960;45.444;11.078;2022-08-21T01:22:20;21.50;99.90
23564;DHT22;11960;45.444;11.078;2022-08-21T01:24:22;21.50;99.90
23564;DHT22;11960;45.444;11.078;2022-08-21T01:26:30;21.50;99.90
23564;DHT22;11960;45.444;11.078;2022-08-21T01:28:42;21.50;99.90
23564;DHT22;11960;45.444;11.078;2022-08-21T01:30:46;21.50;99.90
23564;DHT22;11960;45.444;11.078;2022-08-21T01:32:49;21.50;99.90
23564;DHT22;11960;45.444;11.078;2022-08-21T01:34:53;21.50;99.90
23564;DHT22;11960;45.444;11.078;2022-08-21T01:36:56;21.40;99.90
23564;DHT22;11960;45.444;11.078;2022-08-21T01:38:59;21.40;99.90
23564;DHT22;11960;45.444;11.078;2022-08-21T01:41:02;21.40;99.90
23564;DHT22;11960;45.444;11.078;2022-08-21T01:43:05;21.40;99.90
23564;DHT22;11960;45.444;11.078;2022-08-21T01:45:08;21.40;99.90
23564;DHT22;11960;45.444;11.078;2022-08-21T01:47:13;21.30;99.90
23564;DHT22;11960;45.444;11.078;2022-08-21T01:49:16;21.30;99.90
23564;DHT22;11960;45.444;11.078;2022-08-21T01:51:26;21.30;99.90
23564;DHT22;11960;45.444;11.078;2022-08-21T01:53:33;21.30;99.90
23564;DHT22;11960;45.444;11.078;2022-08-21T01:55:37;21.30;99.90
23564;DHT22;11960;45.444;11.078;2022-08-21T01:57:40;21.30;99.90
23564;DHT22;11960;45.444;11.078;2022-08-21T01:59:46;21.20;99.90
23564;DHT22;11960;45.444;11.078;2022-08-21T02:01:49;21.20;99.90
23564;DHT22;11960;45.444;11.078;2022-08-21T02:03:51;21.20;99.90
23564;DHT22;11960;45.444;11.078;2022-08-21T02:05:54;21.30;99.90
23564;DHT22;11960;45.444;11.078;2022-08-21T02:07:57;21.40;99.90
23564;DHT22;11960;45.444;11.078;2022-08-21T02:09:59;21.40;99.90
23564;DHT22;11960;45.444;11.078;2022-08-21T02:12:05;21.40;99.90
23564;DHT22;11960;45.444;11.078;2022-08-21T02:14:12;21.40;99.90
23564;DHT22;11960;45.444;11.078;2022-08-21T02:16:16;21.40;99.90
23564;DHT22;11960;45.444;11.078;2022-08-21T02:18:21;21.40;99.90
23564;DHT22;11960;45.444;11.078;2022-08-21T02:20:31;21.40;99.90
23564;DHT22;11960;45.444;11.078;2022-08-21T02:22:34;21.40;99.90
23564;DHT22;11960;45.444;11.078;2022-08-21T02:24:39;21.40;99.90
23564;DHT22;11960;45.444;11.078;2022-08-21T02:26:56;21.30;99.90
23564;DHT22;11960;45.444;11.078;2022-08-21T02:28:59;21.40;99.90
23564;DHT22;11960;45.444;11.078;2022-08-21T02:31:04;21.40;99.90
23564;DHT22;11960;45.444;11.078;2022-08-21T02:33:09;21.30;99.90
23564;DHT22;11960;45.444;11.078;2022-08-21T02:35:27;21.30;99.90
23564;DHT22;11960;45.444;11.078;2022-08-21T02:37:30;21.30;99.90
23564;DHT22;11960;45.444;11.078;2022-08-21T02:39:34;21.30;99.90
23564;DHT22;11960;45.444;11.078;2022-08-21T02:41:37;21.30;99.90
23564;DHT22;11960;45.444;11.078;2022-08-21T02:43:40;21.30;99.90
23564;DHT22;11960;45.444;11.078;2022-08-21T02:45:48;21.30;99.90
23564;DHT22;11960;45.444;11.078;2022-08-21T02:47:53;21.20;99.90
23564;DHT22;11960;45.444;11.078;2022-08-21T02:49:56;21.20;99.90
23564;DHT22;11960;45.444;11.078;2022-08-21T02:51:58;21.10;99.90
23564;DHT22;11960;45.444;11.078;2022-08-21T02:54:03;21.10;99.90
23564;DHT22;11960;45.444;11.078;2022-08-21T02:56:09;21.10;99.90
23564;DHT22;11960;45.444;11.078;2022-08-21T02:58:15;21.10;99.90
23564;DHT22;11960;45.444;11.078;2022-08-21T03:00:18;21.10;99.90
23564;DHT22;11960;45.444;11.078;2022-08-21T03:02:22;21.20;99.90
23564;DHT22;11960;45.444;11.078;2022-08-21T03:04:27;21.10;99.90
23564;DHT22;11960;45.444;11.078;2022-08-21T03:06:37;21.10;99.90
23564;DHT22;11960;45.444;11.078;2022-08-21T03:08:42;21.10;99.90
23564;DHT22;11960;45.444;11.078;2022-08-21T03:10:50;21.10;99.90
23564;DHT22;11960;45.444;11.078;2022-08-21T03:12:54;21.10;99.90
23564;DHT22;11960;45.444;11.078;2022-08-21T03:14:56;21.10;99.90
23564;DHT22;11960;45.444;11.078;2022-08-21T03:17:00;21.10;99.90
23564;DHT22;11960;45.444;11.078;2022-08-21T03:19:04;21.10;99.90
23564;DHT22;11960;45.444;11.078;2022-08-21T03:21:07;21.10;99.90
23564;DHT22;11960;45.444;11.078;2022-08-21T03:23:10;21.10;99.90
23564;DHT22;11960;45.444;11.078;2022-08-21T03:25:16;21.10;99.90
23564;DHT22;11960;45.444;11.078;2022-08-21T03:27:31;21.10;99.90
23564;DHT22;11960;45.444;11.078;2022-08-21T03:29:37;21.10;99.90
23564;DHT22;11960;45.444;11.078;2022-08-21T03:31:43;21.00;99.90
23564;DHT22;11960;45.444;11.078;2022-08-21T03:33:46;21.00;99.90
23564;DHT22;11960;45.444;11.078;2022-08-21T03:36:05;21.00;99.90
23564;DHT22;11960;45.444;11.078;2022-08-21T03:38:08;21.00;99.90
23564;DHT22;11960;45.444;11.078;2022-08-21T03:40:13;21.00;99.90
23564;DHT22;11960;45.444;11.078;2022-08-21T03:42:17;21.00;99.90
23564;DHT22;11960;45.444;11.078;2022-08-21T03:44:20;20.90;99.90
23564;DHT22;11960;45.444;11.078;2022-08-21T03:46:23;20.90;99.90
23564;DHT22;11960;45.444;11.078;2022-08-21T03:48:26;20.90;99.90
23564;DHT22;11960;45.444;11.078;2022-08-21T03:50:32;20.90;99.90
23564;DHT22;11960;45.444;11.078;2022-08-21T03:52:36;20.80;99.90
23564;DHT22;11960;45.444;11.078;2022-08-21T03:54:39;20.80;99.90
23564;DHT22;11960;45.444;11.078;2022-08-21T03:56:44;20.80;99.90
23564;DHT22;11960;45.444;11.078;2022-08-21T03:58:46;20.80;99.90
23564;DHT22;11960;45.444;11.078;2022-08-21T04:00:52;20.80;99.90
23564;DHT22;11960;45.444;11.078;2022-08-21T04:02:54;20.80;99.90
23564;DHT22;11960;45.444;11.078;2022-08-21T04:04:57;20.80;99.90
23564;DHT22;11960;45.444;11.078;2022-08-21T04:07:05;20.80;99.90
23564;DHT22;11960;45.444;11.078;2022-08-21T04:09:07;20.80;99.90
23564;DHT22;11960;45.444;11.078;2022-08-21T04:11:10;20.80;99.90
23564;DHT22;11960;45.444;11.078;2022-08-21T04:13:13;20.70;99.90
23564;DHT22;11960;45.444;11.078;2022-08-21T04:15:17;20.70;99.90
23564;DHT22;11960;45.444;11.078;2022-08-21T04:17:19;20.70;99.90
23564;DHT22;11960;45.444;11.078;2022-08-21T04:19:22;20.70;99.90
23564;DHT22;11960;45.444;11.078;2022-08-21T04:21:25;20.70;99.90
23564;DHT22;11960;45.444;11.078;2022-08-21T04:23:29;20.70;99.90
23564;DHT22;11960;45.444;11.078;2022-08-21T04:25:31;20.70;99.90
23564;DHT22;11960;45.444;11.078;2022-08-21T04:27:42;20.70;99.90
23564;DHT22;11960;45.444;11.078;2022-08-21T04:29:44;20.60;99.90
23564;DHT22;11960;45.444;11.078;2022-08-21T04:31:47;20.70;99.90
23564;DHT22;11960;45.444;11.078;2022-08-21T04:33:50;20.60;99.90
23564;DHT22;11960;45.444;11.078;2022-08-21T04:35:53;20.60;99.90
23564;DHT22;11960;45.444;11.078;2022-08-21T04:37:56;20.60;99.90
23564;DHT22;11960;45.444;11.078;2022-08-21T04:39:59;20.60;99.90
23564;DHT22;11960;45.444;11.078;2022-08-21T04:42:02;20.60;99.90
23564;DHT22;11960;45.444;11.078;2022-08-21T04:44:04;20.60;99.90
23564;DHT22;11960;45.444;11.078;2022-08-21T04:46:11;20.50;99.90
23564;DHT22;11960;45.444;11.078;2022-08-21T04:48:18;20.60;99.90
23564;DHT22;11960;45.444;11.078;2022-08-21T04:50:26;20.60;99.90
23564;DHT22;11960;45.444;11.078;2022-08-21T04:52:38;20.60;99.90
23564;DHT22;11960;45.444;11.078;2022-08-21T04:54:43;20.60;99.90
23564;DHT22;11960;45.444;11.078;2022-08-21T04:56:51;20.60;99.90
23564;DHT22;11960;45.444;11.078;2022-08-21T04:58:58;20.60;99.90
23564;DHT22;11960;45.444;11.078;2022-08-21T05:01:03;20.60;99.90
23564;DHT22;11960;45.444;11.078;2022-08-21T05:03:07;20.60;99.90
23564;DHT22;11960;45.444;11.078;2022-08-21T05:05:11;20.60;99.90
23564;DHT22;11960;45.444;11.078;2022-08-21T05:07:23;20.60;99.90
23564;DHT22;11960;45.444;11.078;2022-08-21T05:09:44;20.70;99.90
23564;DHT22;11960;45.444;11.078;2022-08-21T05:11:47;20.60;99.90
23564;DHT22;11960;45.444;11.078;2022-08-21T05:13:51;20.60;99.90
23564;DHT22;11960;45.444;11.078;2022-08-21T05:15:58;20.60;99.90
23564;DHT22;11960;45.444;11.078;2022-08-21T05:18:01;20.70;99.90
23564;DHT22;11960;45.444;11.078;2022-08-21T05:20:04;20.70;99.90
23564;DHT22;11960;45.444;11.078;2022-08-21T05:22:07;20.70;99.90
23564;DHT22;11960;45.444;11.078;2022-08-21T05:24:10;20.80;99.90
23564;DHT22;11960;45.444;11.078;2022-08-21T05:26:13;20.80;99.90
23564;DHT22;11960;45.444;11.078;2022-08-21T05:28:19;20.90;99.90
23564;DHT22;11960;45.444;11.078;2022-08-21T05:30:22;20.90;99.90
23564;DHT22;11960;45.444;11.078;2022-08-21T05:32:25;20.90;99.90
23564;DHT22;11960;45.444;11.078;2022-08-21T05:34:30;21.00;99.90
23564;DHT22;11960;45.444;11.078;2022-08-21T05:36:32;21.00;99.90
23564;DHT22;11960;45.444;11.078;2022-08-21T05:38:35;21.10;99.90
23564;DHT22;11960;45.444;11.078;2022-08-21T05:40:37;21.10;99.90
23564;DHT22;11960;45.444;11.078;2022-08-21T05:42:40;21.20;99.90
23564;DHT22;11960;45.444;11.078;2022-08-21T05:44:44;21.20;99.90
23564;DHT22;11960;45.444;11.078;2022-08-21T05:46:49;21.30;99.90
23564;DHT22;11960;45.444;11.078;2022-08-21T05:48:52;21.30;99.90
23564;DHT22;11960;45.444;11.078;2022-08-21T05:50:55;21.40;99.90
23564;DHT22;11960;45.444;11.078;2022-08-21T05:52:58;21.50;99.90
23564;DHT22;11960;45.444;11.078;2022-08-21T05:55:08;21.50;99.90
23564;DHT22;11960;45.444;11.078;2022-08-21T05:57:11;21.50;99.90
23564;DHT22;11960;45.444;11.078;2022-08-21T05:59:13;21.60;99.90
23564;DHT22;11960;45.444;11.078;2022-08-21T06:01:16;21.60;99.90
23564;DHT22;11960;45.444;11.078;2022-08-21T06:03:30;21.70;99.90
23564;DHT22;11960;45.444;11.078;2022-08-21T06:05:33;21.80;99.90
23564;DHT22;11960;45.444;11.078;2022-08-21T06:07:38;21.80;99.90
23564;DHT22;11960;45.444;11.078;2022-08-21T06:09:41;21.90;99.90
23564;DHT22;11960;45.444;11.078;2022-08-21T06:11:44;22.00;99.90
23564;DHT22;11960;45.444;11.078;2022-08-21T06:13:47;22.00;99.90
23564;DHT22;11960;45.444;11.078;2022-08-21T06:15:51;22.10;99.90
23564;DHT22;11960;45.444;11.078;2022-08-21T06:18:02;22.20;99.90
23564;DHT22;11960;45.444;11.078;2022-08-21T06:20:05;22.30;99.90
23564;DHT22;11960;45.444;11.078;2022-08-21T06:22:08;22.40;99.90
23564;DHT22;11960;45.444;11.078;2022-08-21T06:24:12;22.40;99.90
23564;DHT22;11960;45.444;11.078;2022-08-21T06:26:15;22.50;99.90
23564;DHT22;11960;45.444;11.078;2022-08-21T06:28:18;22.60;99.90
23564;DHT22;11960;45.444;11.078;2022-08-21T06:30:21;22.70;99.90
23564;DHT22;11960;45.444;11.078;2022-08-21T06:32:23;22.80;99.90
23564;DHT22;11960;45.444;11.078;2022-08-21T06:34:26;22.90;99.90
23564;DHT22;11960;45.444;11.078;2022-08-21T06:36:29;23.00;99.90
23564;DHT22;11960;45.444;11.078;2022-08-21T06:38:31;23.10;99.90
23564;DHT22;11960;45.444;11.078;2022-08-21T06:40:34;23.30;99.90
23564;DHT22;11960;45.444;11.078;2022-08-21T06:42:43;23.40;99.90
23564;DHT22;11960;45.444;11.078;2022-08-21T06:44:48;23.60;99.90
23564;DHT22;11960;45.444;11.078;2022-08-21T06:46:51;23.70;99.90
23564;DHT22;11960;45.444;11.078;2022-08-21T06:48:55;23.90;99.90
23564;DHT22;11960;45.444;11.078;2022-08-21T06:50:59;24.00;99.90
23564;DHT22;11960;45.444;11.078;2022-08-21T06:53:10;24.10;99.90
23564;DHT22;11960;45.444;11.078;2022-08-21T06:55:13;24.30;99.90
23564;DHT22;11960;45.444;11.078;2022-08-21T06:57:25;24.40;99.90
23564;DHT22;11960;45.444;11.078;2022-08-21T06:59:27;24.60;99.90
23564;DHT22;11960;45.444;11.078;2022-08-21T07:01:30;24.80;99.90
23564;DHT22;11960;45.444;11.078;2022-08-21T07:03:41;24.90;99.90
23564;DHT22;11960;45.444;11.078;2022-08-21T07:05:44;25.00;99.90
23564;DHT22;11960;45.444;11.078;2022-08-21T07:07:47;25.00;99.90
23564;DHT22;11960;45.444;11.078;2022-08-21T07:09:50;25.10;99.90
23564;DHT22;11960;45.444;11.078;2022-08-21T07:11:55;25.10;99.90
23564;DHT22;11960;45.444;11.078;2022-08-21T07:13:58;25.30;99.90
23564;DHT22;11960;45.444;11.078;2022-08-21T07:16:00;25.30;99.90
23564;DHT22;11960;45.444;11.078;2022-08-21T07:18:06;25.40;99.90
23564;DHT22;11960;45.444;11.078;2022-08-21T07:20:08;25.50;99.90
23564;DHT22;11960;45.444;11.078;2022-08-21T07:22:12;25.60;99.90
23564;DHT22;11960;45.444;11.078;2022-08-21T07:24:15;25.70;99.90
23564;DHT22;11960;45.444;11.078;2022-08-21T07:26:21;25.80;99.90
23564;DHT22;11960;45.444;11.078;2022-08-21T07:28:28;25.90;99.90
23564;DHT22;11960;45.444;11.078;2022-08-21T07:30:31;26.10;99.90
23564;DHT22;11960;45.444;11.078;2022-08-21T07:32:36;26.20;99.90
23564;DHT22;11960;45.444;11.078;2022-08-21T07:34:47;26.40;99.90
23564;DHT22;11960;45.444;11.078;2022-08-21T07:36:49;26.60;99.90
23564;DHT22;11960;45.444;11.078;2022-08-21T07:38:54;26.70;99.90
23564;DHT22;11960;45.444;11.078;2022-08-21T07:41:00;26.80;99.90
23564;DHT22;11960;45.444;11.078;2022-08-21T07:43:06;26.80;99.90
23564;DHT22;11960;45.444;11.078;2022-08-21T07:45:13;26.90;97.80
23564;DHT22;11960;45.444;11.078;2022-08-21T07:47:18;26.90;97.00
23564;DHT22;11960;45.444;11.078;2022-08-21T07:49:41;26.90;95.30
23564;DHT22;11960;45.444;11.078;2022-08-21T07:51:44;27.00;96.30
23564;DHT22;11960;45.444;11.078;2022-08-21T07:53:52;27.00;96.30
23564;DHT22;11960;45.444;11.078;2022-08-21T07:55:57;27.10;97.50
23564;DHT22;11960;45.444;11.078;2022-08-21T07:58:01;27.10;97.20
23564;DHT22;11960;45.444;11.078;2022-08-21T08:00:13;27.20;97.40
23564;DHT22;11960;45.444;11.078;2022-08-21T08:02:28;27.10;95.00
23564;DHT22;11960;45.444;11.078;2022-08-21T08:04:31;27.10;93.20
23564;DHT22;11960;45.444;11.078;2022-08-21T08:06:34;27.00;93.30
23564;DHT22;11960;45.444;11.078;2022-08-21T08:08:41;27.10;93.00
23564;DHT22;11960;45.444;11.078;2022-08-21T08:10:44;27.40;92.50
23564;DHT22;11960;45.444;11.078;2022-08-21T08:12:51;27.60;91.10
23564;DHT22;11960;45.444;11.078;2022-08-21T08:14:59;27.70;90.80
23564;DHT22;11960;45.444;11.078;2022-08-21T08:17:07;27.80;89.20
23564;DHT22;11960;45.444;11.078;2022-08-21T08:19:11;27.90;86.60
23564;DHT22;11960;45.444;11.078;2022-08-21T08:21:14;28.00;82.50
23564;DHT22;11960;45.444;11.078;2022-08-21T08:23:17;28.10;84.10
23564;DHT22;11960;45.444;11.078;2022-08-21T08:25:22;28.20;83.20
23564;DHT22;11960;45.444;11.078;2022-08-21T08:27:26;28.20;83.90
23564;DHT22;11960;45.444;11.078;2022-08-21T08:29:30;28.30;82.90
23564;DHT22;11960;45.444;11.078;2022-08-21T08:31:35;28.30;81.40
23564;DHT22;11960;45.444;11.078;2022-08-21T08:33:38;28.30;79.80
23564;DHT22;11960;45.444;11.078;2022-08-21T08:35:43;28.40;78.80
23564;DHT22;11960;45.444;11.078;2022-08-21T08:37:47;28.50;78.90
23564;DHT22;11960;45.444;11.078;2022-08-21T08:39:53;28.70;78.80
23564;DHT22;11960;45.444;11.078;2022-08-21T08:42:06;28.80;78.50
23564;DHT22;11960;45.444;11.078;2022-08-21T08:44:29;28.80;80.30
23564;DHT22;11960;45.444;11.078;2022-08-21T08:46:43;28.90;83.10
23564;DHT22;11960;45.444;11.078;2022-08-21T08:49:06;29.10;81.50
23564;DHT22;11960;45.444;11.078;2022-08-21T08:51:47;29.30;80.90
23564;DHT22;11960;45.444;11.078;2022-08-21T08:54:01;29.50;80.20
23564;DHT22;11960;45.444;11.078;2022-08-21T08:56:05;29.60;77.80
23564;DHT22;11960;45.444;11.078;2022-08-21T08:58:25;29.60;73.90
23564;DHT22;11960;45.444;11.078;2022-08-21T09:00:45;29.40;75.80
23564;DHT22;11960;45.444;11.078;2022-08-21T09:03:01;29.30;75.40
23564;DHT22;11960;45.444;11.078;2022-08-21T09:05:17;29.20;77.50
23564;DHT22;11960;45.444;11.078;2022-08-21T09:13:05;29.10;77.10
23564;DHT22;11960;45.444;11.078;2022-08-21T09:19:59;29.70;76.50
23564;DHT22;11960;45.444;11.078;2022-08-21T09:25:25;30.10;72.40
23564;DHT22;11960;45.444;11.078;2022-08-21T09:27:29;30.20;72.70
23564;DHT22;11960;45.444;11.078;2022-08-21T09:29:36;30.30;74.40
23564;DHT22;11960;45.444;11.078;2022-08-21T09:31:39;30.30;72.40
23564;DHT22;11960;45.444;11.078;2022-08-21T09:33:42;30.50;75.60
23564;DHT22;11960;45.444;11.078;2022-08-21T09:35:51;30.70;75.70
23564;DHT22;11960;45.444;11.078;2022-08-21T09:38:06;31.10;77.90
23564;DHT22;11960;45.444;11.078;2022-08-21T09:40:27;31.40;77.50
23564;DHT22;11960;45.444;11.078;2022-08-21T09:42:32;31.70;71.40
23564;DHT22;11960;45.444;11.078;2022-08-21T09:44:37;31.60;68.00
23564;DHT22;11960;45.444;11.078;2022-08-21T09:46:51;31.60;70.10
23564;DHT22;11960;45.444;11.078;2022-08-21T09:49:00;31.60;69.90
23564;DHT22;11960;45.444;11.078;2022-08-21T09:51:10;31.60;69.40
23564;DHT22;11960;45.444;11.078;2022-08-21T09:53:24;31.60;67.30
23564;DHT22;11960;45.444;11.078;2022-08-21T09:55:47;31.90;68.20
23564;DHT22;11960;45.444;11.078;2022-08-21T09:58:09;32.30;69.10
23564;DHT22;11960;45.444;11.078;2022-08-21T10:00:25;32.60;68.30
23564;DHT22;11960;45.444;11.078;2022-08-21T10:02:31;33.00;67.00
23564;DHT22;11960;45.444;11.078;2022-08-21T10:04:35;33.30;66.30
23564;DHT22;11960;45.444;11.078;2022-08-21T10:06:38;33.50;63.10
23564;DHT22;11960;45.444;11.078;2022-08-21T10:08:43;33.30;61.30
23564;DHT22;11960;45.444;11.078;2022-08-21T10:10:45;33.20;61.80
23564;DHT22;11960;45.444;11.078;2022-08-21T10:16:02;33.40;63.00
23564;DHT22;11960;45.444;11.078;2022-08-21T10:20:20;34.10;57.30
23564;DHT22;11960;45.444;11.078;2022-08-21T10:26:57;34.20;54.60
23564;DHT22;11960;45.444;11.078;2022-08-21T10:29:24;34.20;56.50
23564;DHT22;11960;45.444;11.078;2022-08-21T10:31:49;34.50;56.40
23564;DHT22;11960;45.444;11.078;2022-08-21T10:34:06;34.90;54.50
23564;DHT22;11960;45.444;11.078;2022-08-21T10:36:30;35.40;55.90
23564;DHT22;11960;45.444;11.078;2022-08-21T10:43:59;36.70;51.80
23564;DHT22;11960;45.444;11.078;2022-08-21T10:46:13;36.70;48.70
23564;DHT22;11960;45.444;11.078;2022-08-21T10:48:29;36.60;49.00
23564;DHT22;11960;45.444;11.078;2022-08-21T10:51:12;36.40;48.80
23564;DHT22;11960;45.444;11.078;2022-08-21T10:55:35;36.00;52.80
23564;DHT22;11960;45.444;11.078;2022-08-21T10:58:01;36.20;50.00
23564;DHT22;11960;45.444;11.078;2022-08-21T11:00:08;36.40;49.40
23564;DHT22;11960;45.444;11.078;2022-08-21T11:04:36;36.70;46.80
23564;DHT22;11960;45.444;11.078;2022-08-21T11:07:12;36.70;48.00
23564;DHT22;11960;45.444;11.078;2022-08-21T11:09:23;37.20;45.40
23564;DHT22;11960;45.444;11.078;2022-08-21T11:11:38;37.30;43.90
23564;DHT22;11960;45.444;11.078;2022-08-21T11:14:09;37.30;43.60
23564;DHT22;11960;45.444;11.078;2022-08-21T11:21:43;37.90;42.60
23564;DHT22;11960;45.444;11.078;2022-08-21T11:24:10;38.30;43.10
23564;DHT22;11960;45.444;11.078;2022-08-21T11:26:37;38.60;42.70
23564;DHT22;11960;45.444;11.078;2022-08-21T11:28:48;38.70;42.90
23564;DHT22;11960;45.444;11.078;2022-08-21T11:31:06;38.50;40.70
23564;DHT22;11960;45.444;11.078;2022-08-21T11:33:20;38.20;40.80
23564;DHT22;11960;45.444;11.078;2022-08-21T11:35:47;38.00;40.40
23564;DHT22;11960;45.444;11.078;2022-08-21T11:46:10;38.00;38.50
23564;DHT22;11960;45.444;11.078;2022-08-21T11:50:20;38.30;40.60
23564;DHT22;11960;45.444;11.078;2022-08-21T11:52:43;38.20;41.80
23564;DHT22;11960;45.444;11.078;2022-08-21T11:55:02;38.10;41.30
23564;DHT22;11960;45.444;11.078;2022-08-21T11:57:14;38.10;42.40
23564;DHT22;11960;45.444;11.078;2022-08-21T11:59:24;38.20;43.60
23564;DHT22;11960;45.444;11.078;2022-08-21T12:01:32;38.50;41.00
23564;DHT22;11960;45.444;11.078;2022-08-21T12:04:02;38.60;40.40
23564;DHT22;11960;45.444;11.078;2022-08-21T12:06:06;38.60;40.80
23564;DHT22;11960;45.444;11.078;2022-08-21T12:10:17;38.40;38.70
23564;DHT22;11960;45.444;11.078;2022-08-21T12:12:30;38.20;38.20
23564;DHT22;11960;45.444;11.078;2022-08-21T12:15:24;38.10;38.40
23564;DHT22;11960;45.444;11.078;2022-08-21T12:17:40;38.50;38.90
23564;DHT22;11960;45.444;11.078;2022-08-21T12:19:43;38.90;39.20
23564;DHT22;11960;45.444;11.078;2022-08-21T12:24:17;39.40;37.30
23564;DHT22;11960;45.444;11.078;2022-08-21T12:26:30;39.10;37.50
23564;DHT22;11960;45.444;11.078;2022-08-21T12:28:33;38.90;38.70
23564;DHT22;11960;45.444;11.078;2022-08-21T12:30:43;39.00;38.50
23564;DHT22;11960;45.444;11.078;2022-08-21T12:32:58;39.00;38.60
23564;DHT22;11960;45.444;11.078;2022-08-21T12:35:24;38.90;39.00
23564;DHT22;11960;45.444;11.078;2022-08-21T12:38:07;38.90;36.30
23564;DHT22;11960;45.444;11.078;2022-08-21T12:40:28;38.70;35.20
23564;DHT22;11960;45.444;11.078;2022-08-21T12:42:41;38.40;38.70
23564;DHT22;11960;45.444;11.078;2022-08-21T12:44:56;38.40;37.60
23564;DHT22;11960;45.444;11.078;2022-08-21T12:51:52;37.60;37.30
23564;DHT22;11960;45.444;11.078;2022-08-21T12:53:59;37.60;37.50
23564;DHT22;11960;45.444;11.078;2022-08-21T12:56:03;37.40;36.20
23564;DHT22;11960;45.444;11.078;2022-08-21T12:58:06;37.30;36.70
23564;DHT22;11960;45.444;11.078;2022-08-21T13:00:28;37.10;35.80
23564;DHT22;11960;45.444;11.078;2022-08-21T13:02:35;37.00;38.90
23564;DHT22;11960;45.444;11.078;2022-08-21T13:04:41;37.00;38.10
23564;DHT22;11960;45.444;11.078;2022-08-21T13:06:48;37.00;37.90
23564;DHT22;11960;45.444;11.078;2022-08-21T13:08:57;37.00;38.60
23564;DHT22;11960;45.444;11.078;2022-08-21T13:11:04;37.00;38.30
23564;DHT22;11960;45.444;11.078;2022-08-21T13:13:21;36.90;39.20
23564;DHT22;11960;45.444;11.078;2022-08-21T13:15:32;36.80;37.90
23564;DHT22;11960;45.444;11.078;2022-08-21T13:17:38;36.80;37.70
23564;DHT22;11960;45.444;11.078;2022-08-21T13:19:41;36.70;39.30
23564;DHT22;11960;45.444;11.078;2022-08-21T13:21:45;36.80;39.60
23564;DHT22;11960;45.444;11.078;2022-08-21T13:23:47;37.00;40.60
23564;DHT22;11960;45.444;11.078;2022-08-21T13:25:50;37.20;40.30
23564;DHT22;11960;45.444;11.078;2022-08-21T13:28:10;37.50;38.80
23564;DHT22;11960;45.444;11.078;2022-08-21T13:30:19;37.70;35.80
23564;DHT22;11960;45.444;11.078;2022-08-21T13:32:25;37.70;36.50
23564;DHT22;11960;45.444;11.078;2022-08-21T13:34:35;37.70;34.80
23564;DHT22;11960;45.444;11.078;2022-08-21T13:36:41;37.50;34.50
23564;DHT22;11960;45.444;11.078;2022-08-21T13:38:45;37.30;33.80
23564;DHT22;11960;45.444;11.078;2022-08-21T13:40:54;37.10;35.00
23564;DHT22;11960;45.444;11.078;2022-08-21T13:42:59;36.90;35.00
23564;DHT22;11960;45.444;11.078;2022-08-21T13:45:02;36.80;35.80
23564;DHT22;11960;45.444;11.078;2022-08-21T13:47:06;36.60;35.60
23564;DHT22;11960;45.444;11.078;2022-08-21T13:49:19;36.40;35.50
23564;DHT22;11960;45.444;11.078;2022-08-21T13:51:27;36.30;36.60
23564;DHT22;11960;45.444;11.078;2022-08-21T13:55:42;36.30;38.00
23564;DHT22;11960;45.444;11.078;2022-08-21T13:57:46;36.30;37.30
23564;DHT22;11960;45.444;11.078;2022-08-21T13:59:48;36.20;39.10
23564;DHT22;11960;45.444;11.078;2022-08-21T14:01:57;36.10;38.80
23564;DHT22;11960;45.444;11.078;2022-08-21T14:04:16;36.00;39.20
23564;DHT22;11960;45.444;11.078;2022-08-21T14:06:23;35.90;39.70
23564;DHT22;11960;45.444;11.078;2022-08-21T14:10:40;35.90;37.30
23564;DHT22;11960;45.444;11.078;2022-08-21T14:13:26;35.90;39.10
23564;DHT22;11960;45.444;11.078;2022-08-21T14:15:13;36.00;40.90
23564;DHT22;11960;45.444;11.078;2022-08-21T14:17:37;36.00;40.30